Time;durP1;ratioP1;P1;durP2;ratioP2;P2;SDS_P1;SDS_P2;PMS_P1;PMS_P2;Temp;Humidity;BMP_temperature;BMP_pressure;BME280_temperature;BME280_humidity;BME280_pressure;Samples;Min_cycle;Max_cycle;Signal;HPM_P1;HPM_P2
2021/01/24 00:01:09;;;;;;;5.55;2.55;;;29.00;71.50;;;;;;5048480;28;20466;-60
2021/01/24 00:03:37;;;;;;;7.15;3.08;;;29.00;71.80;;;;;;5046583;28;20535;-62
2021/01/24 00:06:04;;;;;;;6.97;2.90;;;29.00;71.90;;;;;;5047975;28;20025;-57
2021/01/24 00:08:31;;;;;;;9.30;3.67;;;29.10;71.60;;;;;;5045109;28;20044;-58
2021/01/24 00:10:59;;;;;;;9.48;3.10;;;29.00;71.90;;;;;;5047426;28;20021;-62
2021/01/24 00:13:26;;;;;;;11.10;3.10;;;29.20;71.30;;;;;;5048376;28;20108;-56
2021/01/24 00:15:53;;;;;;;8.40;3.20;;;29.20;71.50;;;;;;5048138;28;20040;-62
2021/01/24 00:18:22;;;;;;;8.13;3.05;;;29.40;71.00;;;;;;5046789;28;20064;-59
2021/01/24 00:20:49;;;;;;;9.65;3.00;;;29.50;70.70;;;;;;5044739;28;20104;-61
2021/01/24 00:23:17;;;;;;;12.45;3.55;;;29.60;70.70;;;;;;5044377;28;20028;-63
2021/01/24 00:25:44;;;;;;;10.20;2.97;;;29.60;69.60;;;;;;5048127;28;20021;-61
2021/01/24 00:28:12;;;;;;;10.02;3.00;;;29.80;69.20;;;;;;5044784;28;20037;-64
2021/01/24 00:30:39;;;;;;;6.63;3.33;;;29.70;69.80;;;;;;5044759;28;20411;-62
2021/01/24 00:33:07;;;;;;;7.78;2.95;;;29.70;69.90;;;;;;5050435;28;20049;-59
2021/01/24 00:35:34;;;;;;;9.43;2.95;;;29.80;69.70;;;;;;5051148;28;20028;-58
2021/01/24 00:38:02;;;;;;;11.00;2.75;;;29.80;70.10;;;;;;5051344;28;20037;-58
2021/01/24 00:40:29;;;;;;;9.85;2.38;;;29.70;70.00;;;;;;5047232;28;20025;-63
2021/01/24 00:42:56;;;;;;;5.50;2.72;;;29.80;69.80;;;;;;5051733;28;20427;-57
2021/01/24 00:45:24;;;;;;;11.82;2.83;;;30.00;68.80;;;;;;5050580;28;20108;-57
2021/01/24 00:47:51;;;;;;;6.20;2.58;;;30.10;68.50;;;;;;5051295;28;20072;-51
2021/01/24 00:50:19;;;;;;;8.85;3.05;;;30.20;68.70;;;;;;5047337;28;20029;-63
2021/01/24 00:52:46;;;;;;;8.60;2.83;;;30.00;68.90;;;;;;5050944;28;20028;-57
2021/01/24 00:55:13;;;;;;;7.63;2.53;;;30.30;68.40;;;;;;5051171;28;20033;-61
2021/01/24 00:57:41;;;;;;;8.57;3.30;;;30.50;68.00;;;;;;5050790;28;20032;-62
2021/01/24 01:00:09;;;;;;;9.48;3.40;;;30.60;67.30;;;;;;5046345;28;20033;-58
2021/01/24 01:02:36;;;;;;;6.85;3.25;;;30.60;67.10;;;;;;5050642;28;20021;-55
2021/01/24 01:05:05;;;;;;;7.80;2.97;;;30.50;67.40;;;;;;5051103;28;20021;-58
2021/01/24 01:07:33;;;;;;;6.97;4.43;;;30.50;67.80;;;;;;5049923;28;20521;-59
2021/01/24 01:10:00;;;;;;;17.00;4.68;;;30.60;68.30;;;;;;5046057;28;20032;-55
2021/01/24 01:12:27;;;;;;;15.90;4.50;;;30.50;68.10;;;;;;5050253;28;20037;-55
2021/01/24 01:14:55;;;;;;;6.75;3.30;;;30.60;68.40;;;;;;5051256;28;20040;-60
2021/01/24 01:17:22;;;;;;;7.68;2.88;;;30.50;68.80;;;;;;5050581;28;20357;-54
2021/01/24 01:19:50;;;;;;;3.50;2.72;;;30.40;69.20;;;;;;5046569;28;20108;-59
2021/01/24 01:22:17;;;;;;;7.35;3.17;;;30.10;70.60;;;;;;5050435;28;20029;-61
2021/01/24 01:24:44;;;;;;;4.15;3.15;;;29.90;71.00;;;;;;5049555;28;20021;-56
2021/01/24 01:27:12;;;;;;;4.45;2.50;;;29.90;70.60;;;;;;5047484;28;20403;-56
2021/01/24 01:29:39;;;;;;;4.38;2.95;;;30.00;70.40;;;;;;5047014;28;20100;-59
2021/01/24 01:32:07;;;;;;;7.32;3.15;;;29.90;71.10;;;;;;5053587;28;20066;-54
2021/01/24 01:34:34;;;;;;;6.07;3.72;;;29.80;71.50;;;;;;5053648;28;20037;-63
2021/01/24 01:37:04;;;;;;;9.30;6.40;;;29.90;69.90;;;;;;5053910;28;20032;-62
2021/01/24 01:39:32;;;;;;;9.35;8.10;;;29.80;70.10;;;;;;5052369;28;20061;-59
2021/01/24 01:41:59;;;;;;;9.30;7.50;;;29.80;70.30;;;;;;5053021;28;20035;-59
2021/01/24 01:44:26;;;;;;;9.73;8.57;;;29.90;71.30;;;;;;5053441;28;20050;-55
2021/01/24 01:46:57;;;;;;;11.50;8.48;;;29.90;69.70;;;;;;5053587;28;20024;-59
2021/01/24 01:49:24;;;;;;;11.52;10.50;;;30.00;69.70;;;;;;5052830;28;20051;-63
2021/01/24 01:51:52;;;;;;;11.25;10.07;;;29.90;69.70;;;;;;5053588;28;20020;-58
2021/01/24 01:54:19;;;;;;;12.65;11.23;;;30.00;70.00;;;;;;5052625;28;20055;-61
2021/01/24 01:56:47;;;;;;;12.50;11.27;;;29.90;71.10;;;;;;5052471;28;20075;-59
2021/01/24 01:59:14;;;;;;;13.88;11.38;;;30.00;71.00;;;;;;5051856;28;20074;-60
2021/01/24 02:02:06;;;;;;;11.80;8.85;;;30.10;70.60;;;;;;5053675;28;20052;-64
2021/01/24 02:04:53;;;;;;;9.45;7.82;;;30.10;69.60;;;;;;5053198;28;20033;-58
2021/01/24 02:07:26;;;;;;;15.20;8.60;;;30.10;70.70;;;;;;5052994;28;20079;-62
2021/01/24 02:10:05;;;;;;;14.18;7.28;;;29.90;72.00;;;;;;5052182;28;20025;-59
2021/01/24 02:12:56;;;;;;;13.85;5.90;;;29.90;71.50;;;;;;5053284;28;20032;-62
2021/01/24 02:15:27;;;;;;;9.88;6.55;;;29.90;71.30;;;;;;5053193;28;20055;-62
2021/01/24 02:18:01;;;;;;;7.82;4.70;;;29.90;71.60;;;;;;5053224;28;20017;-60
2021/01/24 02:20:45;;;;;;;6.82;6.18;;;29.80;71.50;;;;;;5053127;28;20029;-62
2021/01/24 02:23:15;;;;;;;10.15;7.30;;;29.80;73.00;;;;;;5052616;28;20034;-59
2021/01/24 02:25:51;;;;;;;12.15;9.40;;;29.90;72.20;;;;;;5052707;28;20060;-60
2021/01/24 02:28:43;;;;;;;21.27;12.30;;;30.10;70.70;;;;;;5052292;28;20111;-60
2021/01/24 02:31:11;;;;;;;23.05;11.32;;;30.00;70.80;;;;;;5052890;28;20028;-56
2021/01/24 02:33:40;;;;;;;40.50;15.02;;;30.10;69.90;;;;;;5051683;28;20047;-59
2021/01/24 02:36:11;;;;;;;15.65;10.45;;;30.20;70.30;;;;;;5052379;28;20017;-57
2021/01/24 02:38:40;;;;;;;15.43;12.52;;;30.30;69.70;;;;;;5052449;28;20025;-65
2021/01/24 02:41:12;;;;;;;19.02;14.73;;;30.20;69.60;;;;;;5052582;28;20029;-57
2021/01/24 02:43:44;;;;;;;19.70;13.57;;;30.20;71.40;;;;;;5052511;28;20113;-60
2021/01/24 02:46:13;;;;;;;14.15;12.63;;;30.20;70.90;;;;;;5051507;28;20029;-62
2021/01/24 02:48:42;;;;;;;11.05;8.90;;;30.20;70.80;;;;;;5052584;28;20557;-60
2021/01/24 02:51:11;;;;;;;10.27;7.50;;;30.40;69.00;;;;;;5052911;28;20542;-61
2021/01/24 02:53:40;;;;;;;9.23;8.30;;;30.50;67.70;;;;;;5051198;28;20033;-65
2021/01/24 02:56:07;;;;;;;10.30;7.60;;;30.30;70.60;;;;;;5051966;28;20017;-60
2021/01/24 02:58:35;;;;;;;8.73;7.82;;;30.30;69.50;;;;;;5052660;28;20059;-64
2021/01/24 03:01:02;;;;;;;10.38;9.20;;;30.40;69.40;;;;;;5053040;28;20201;-61
2021/01/24 03:03:30;;;;;;;14.13;12.45;;;30.40;70.10;;;;;;5052350;28;20036;-64
2021/01/24 03:05:58;;;;;;;17.17;14.68;;;30.40;67.70;;;;;;5051829;28;20120;-65
2021/01/24 03:08:26;;;;;;;22.48;20.42;;;30.60;68.90;;;;;;5052040;28;20399;-65
2021/01/24 03:10:53;;;;;;;23.52;18.55;;;30.40;71.50;;;;;;5051708;28;20059;-64
2021/01/24 03:13:32;;;;;;;22.83;19.85;;;30.30;70.70;;;;;;5052222;28;20025;-65
2021/01/24 03:16:00;;;;;;;17.48;13.77;;;30.20;73.10;;;;;;5052127;28;20036;-57
2021/01/24 03:18:29;;;;;;;15.43;10.68;;;30.40;69.50;;;;;;5051404;28;20041;-55
2021/01/24 03:20:57;;;;;;;14.57;9.32;;;30.50;70.00;;;;;;5052152;28;20043;-52
2021/01/24 03:23:26;;;;;;;17.40;9.60;;;30.60;66.60;;;;;;5052039;28;20387;-54
2021/01/24 03:25:55;;;;;;;10.57;7.93;;;30.90;65.50;;;;;;5048862;28;20111;-62
2021/01/24 03:28:22;;;;;;;10.50;7.45;;;31.10;61.70;;;;;;5046420;28;20056;-54
2021/01/24 03:30:53;;;;;;;8.68;5.50;;;31.20;67.30;;;;;;5051917;28;20052;-60
2021/01/24 03:33:21;;;;;;;15.65;5.25;;;31.20;66.60;;;;;;5052044;28;20035;-57
2021/01/24 03:35:48;;;;;;;14.63;5.30;;;31.00;67.00;;;;;;5051524;28;20021;-61
2021/01/24 03:38:15;;;;;;;23.38;5.57;;;31.00;67.10;;;;;;5051583;28;20111;-61
2021/01/24 03:40:43;;;;;;;11.20;5.07;;;30.80;69.40;;;;;;5051691;28;20474;-62
2021/01/24 03:43:10;;;;;;;7.30;3.47;;;30.80;69.80;;;;;;5051836;28;20020;-63
2021/01/24 03:45:37;;;;;;;11.98;4.40;;;30.60;70.30;;;;;;5049306;28;20075;-63
2021/01/24 03:48:05;;;;;;;9.30;4.40;;;30.60;70.40;;;;;;5042919;28;20041;-60
2021/01/24 03:50:32;;;;;;;19.55;4.20;;;30.50;70.90;;;;;;5051968;28;20114;-59
2021/01/24 03:53:00;;;;;;;11.80;3.53;;;30.40;69.90;;;;;;5051840;28;20432;-61
2021/01/24 03:55:27;;;;;;;9.48;3.20;;;30.50;72.20;;;;;;5051489;28;20404;-59
2021/01/24 03:57:55;;;;;;;11.23;2.97;;;30.50;72.30;;;;;;5051290;28;20430;-61
2021/01/24 04:00:23;;;;;;;10.35;3.05;;;30.50;72.80;;;;;;5051375;28;20040;-59
2021/01/24 04:02:50;;;;;;;18.48;3.10;;;30.60;69.50;;;;;;5051596;28;20017;-60
2021/01/24 04:05:18;;;;;;;27.50;4.25;;;30.70;71.10;;;;;;5053344;28;20109;-66
2021/01/24 04:07:45;;;;;;;12.82;2.80;;;30.70;70.00;;;;;;5055096;28;20037;-60
2021/01/24 04:10:13;;;;;;;26.98;3.42;;;30.70;70.00;;;;;;5054956;28;20041;-56
2021/01/24 04:12:41;;;;;;;8.65;2.92;;;31.20;64.70;;;;;;5055034;28;20031;-63
2021/01/24 04:15:08;;;;;;;9.48;2.63;;;31.30;59.10;;;;;;5055063;28;20029;-60
2021/01/24 04:17:36;;;;;;;17.77;3.42;;;31.70;60.00;;;;;;5055220;28;20057;-62
2021/01/24 04:20:04;;;;;;;13.48;3.35;;;31.70;58.20;;;;;;5054628;28;20028;-63
2021/01/24 04:22:32;;;;;;;12.13;2.65;;;31.70;64.90;;;;;;5051247;28;20029;-59
2021/01/24 04:24:59;;;;;;;9.98;2.60;;;31.70;60.10;;;;;;5054778;28;20468;-56
2021/01/24 04:27:27;;;;;;;20.17;2.90;;;31.70;62.30;;;;;;5054608;28;20049;-60
2021/01/24 04:29:54;;;;;;;18.08;3.47;;;31.70;57.60;;;;;;5051958;28;20040;-60
2021/01/24 04:32:21;;;;;;;11.25;3.33;;;31.70;61.30;;;;;;5053543;28;20051;-59
2021/01/24 04:34:49;;;;;;;16.98;2.20;;;31.60;61.90;;;;;;5054674;28;20029;-55
2021/01/24 04:37:16;;;;;;;7.35;2.05;;;31.70;55.50;;;;;;5054628;28;20036;-60
2021/01/24 04:39:44;;;;;;;12.30;2.67;;;31.90;54.60;;;;;;5054827;28;20060;-63
2021/01/24 04:42:11;;;;;;;10.75;2.42;;;31.80;59.00;;;;;;5054096;28;20025;-51
2021/01/24 04:44:38;;;;;;;17.27;3.42;;;31.80;55.80;;;;;;5054992;28;20372;-61
2021/01/24 04:47:07;;;;;;;16.15;2.65;;;31.90;56.60;;;;;;5053641;28;20021;-63
2021/01/24 04:49:35;;;;;;;18.08;2.50;;;31.90;57.00;;;;;;5054366;28;20086;-62
2021/01/24 04:52:03;;;;;;;16.20;2.83;;;31.70;57.10;;;;;;5053441;28;20024;-56
2021/01/24 04:54:33;;;;;;;16.95;3.22;;;31.60;57.30;;;;;;5054615;28;20086;-63
2021/01/24 04:57:01;;;;;;;11.98;2.30;;;31.70;55.00;;;;;;5054746;28;20021;-63
2021/01/24 04:59:28;;;;;;;16.67;3.03;;;31.80;56.50;;;;;;5054529;28;20017;-62
2021/01/24 05:01:56;;;;;;;21.38;2.90;;;31.70;56.30;;;;;;5054262;28;20021;-63
2021/01/24 05:04:23;;;;;;;17.35;3.00;;;31.60;59.10;;;;;;5052590;28;20021;-56
2021/01/24 05:06:51;;;;;;;12.65;2.60;;;31.60;52.20;;;;;;5054084;28;20531;-63
2021/01/24 05:09:20;;;;;;;18.55;2.53;;;31.70;52.00;;;;;;5052845;28;20067;-67
2021/01/24 05:11:51;;;;;;;12.65;2.63;;;31.50;55.50;;;;;;5054331;28;20188;-66
2021/01/24 05:14:21;;;;;;;16.55;3.03;;;31.10;54.90;;;;;;5054109;28;20480;-65
2021/01/24 05:16:53;;;;;;;9.05;2.00;;;31.00;57.40;;;;;;5053879;28;20029;-62
2021/01/24 05:19:23;;;;;;;8.93;2.45;;;31.00;57.80;;;;;;5054392;28;20021;-65
2021/01/24 05:21:54;;;;;;;6.90;2.10;;;31.00;57.40;;;;;;5053877;28;20128;-65
2021/01/24 05:24:21;;;;;;;10.55;1.95;;;30.90;57.30;;;;;;5052053;28;20013;-65
2021/01/24 05:26:50;;;;;;;11.23;2.65;;;30.90;56.90;;;;;;5052183;28;20045;-65
2021/01/24 05:29:25;;;;;;;9.85;2.60;;;30.90;58.30;;;;;;5052896;28;20106;-61
2021/01/24 05:31:56;;;;;;;8.23;2.28;;;30.80;58.40;;;;;;5039079;28;20016;-62
2021/01/24 05:34:28;;;;;;;10.88;2.50;;;30.90;57.10;;;;;;5053921;28;20499;-63
2021/01/24 05:36:56;;;;;;;5.22;1.40;;;30.80;56.80;;;;;;5054644;28;20025;-64
2021/01/24 05:39:25;;;;;;;9.52;2.45;;;30.80;56.70;;;;;;5053750;28;20025;-65
2021/01/24 05:41:55;;;;;;;7.97;2.30;;;30.80;57.50;;;;;;5034254;28;20048;-65
2021/01/24 05:44:24;;;;;;;6.85;2.30;;;30.90;56.80;;;;;;5034004;28;20631;-65
2021/01/24 05:46:54;;;;;;;8.30;2.45;;;30.90;56.50;;;;;;5034253;28;20109;-66
2021/01/24 05:49:30;;;;;;;10.38;2.58;;;30.90;55.90;;;;;;5047576;28;20040;-65
2021/01/24 05:52:11;;;;;;;7.60;1.98;;;30.80;58.00;;;;;;5053925;28;20436;-65
2021/01/24 05:54:46;;;;;;;6.28;2.17;;;30.90;56.60;;;;;;5053307;28;20043;-64
2021/01/24 05:57:15;;;;;;;14.45;2.60;;;30.90;56.70;;;;;;5039927;28;20036;-52
2021/01/24 05:59:50;;;;;;;10.63;2.20;;;31.00;55.00;;;;;;5049460;28;20088;-63
2021/01/24 06:02:19;;;;;;;5.80;2.08;;;31.00;55.30;;;;;;5049917;28;20118;-63
2021/01/24 06:04:48;;;;;;;11.27;2.10;;;30.90;55.90;;;;;;5049270;28;20029;-59
2021/01/24 06:07:17;;;;;;;6.20;2.10;;;30.90;55.90;;;;;;5049698;28;20021;-60
2021/01/24 06:09:45;;;;;;;11.02;2.40;;;30.80;57.50;;;;;;5050200;28;20028;-62
2021/01/24 06:12:17;;;;;;;6.70;2.17;;;30.70;56.90;;;;;;5049824;28;20087;-62
2021/01/24 06:14:49;;;;;;;10.13;2.17;;;30.70;56.70;;;;;;5046260;28;20052;-61
2021/01/24 06:17:28;;;;;;;7.40;2.28;;;30.70;57.20;;;;;;5050658;28;20707;-65
2021/01/24 06:20:01;;;;;;;10.05;1.80;;;30.70;57.40;;;;;;5050239;28;20037;-59
2021/01/24 06:22:48;;;;;;;9.50;2.45;;;30.60;57.00;;;;;;5050039;28;20029;-59
2021/01/24 06:25:40;;;;;;;6.75;2.20;;;30.50;57.20;;;;;;5044200;28;20372;-61
2021/01/24 06:28:23;;;;;;;10.52;2.30;;;30.50;57.00;;;;;;5048761;28;20507;-60
2021/01/24 06:30:51;;;;;;;8.50;2.42;;;30.40;57.70;;;;;;5047731;28;20036;-56
2021/01/24 06:33:21;;;;;;;8.10;1.95;;;30.30;56.90;;;;;;5049273;28;20039;-59
2021/01/24 06:36:06;;;;;;;9.27;2.65;;;30.30;58.30;;;;;;5044715;28;20148;-51
2021/01/24 06:38:35;;;;;;;6.95;2.00;;;30.30;56.80;;;;;;5048991;28;20029;-58
2021/01/24 06:41:07;;;;;;;7.55;2.08;;;30.30;56.30;;;;;;5049757;28;20071;-63
2021/01/24 06:43:48;;;;;;;4.05;1.45;;;30.30;58.40;;;;;;5048050;28;20021;-60
2021/01/24 06:46:21;;;;;;;;;;;30.20;58.60;;;;;;5047608;28;20131;-56
2021/01/24 06:48:50;;;;;;;7.75;2.17;;;30.20;59.20;;;;;;5050047;28;19912;-56
2021/01/24 06:51:37;;;;;;;6.00;2.08;;;30.10;57.10;;;;;;5048599;28;20017;-62
2021/01/24 06:54:15;;;;;;;4.68;2.08;;;30.10;57.80;;;;;;5043378;28;20040;-59
2021/01/24 06:56:45;;;;;;;8.68;2.60;;;30.10;56.60;;;;;;5048398;28;20096;-61
2021/01/24 06:59:13;;;;;;;8.27;2.35;;;30.10;57.80;;;;;;5048918;28;20078;-56
2021/01/24 07:01:43;;;;;;;7.20;2.20;;;30.10;57.90;;;;;;5048880;28;20083;-62
2021/01/24 07:04:25;;;;;;;7.30;2.50;;;30.00;59.70;;;;;;5043697;28;20381;-58
2021/01/24 07:06:57;;;;;;;8.82;1.60;;;29.90;57.80;;;;;;5047922;28;20033;-53
2021/01/24 07:09:27;;;;;;;6.18;2.25;;;29.90;59.20;;;;;;5048549;28;20044;-57
2021/01/24 07:11:57;;;;;;;5.38;1.77;;;29.80;59.10;;;;;;5048036;28;20075;-64
2021/01/24 07:14:33;;;;;;;9.57;2.25;;;29.80;59.30;;;;;;5044512;28;20420;-58
2021/01/24 07:17:15;;;;;;;5.72;1.60;;;29.80;56.60;;;;;;5046853;28;20028;-64
2021/01/24 07:19:46;;;;;;;;;;;29.80;57.30;;;;;;5046630;28;20075;-63
2021/01/24 07:22:15;;;;;;;4.93;1.70;;;29.70;59.50;;;;;;5048497;28;19905;-58
2021/01/24 07:24:44;;;;;;;3.50;1.60;;;29.60;58.10;;;;;;5044539;28;20118;-58
2021/01/24 07:27:23;;;;;;;7.88;1.58;;;29.70;57.50;;;;;;5048517;28;20041;-58
2021/01/24 07:29:51;;;;;;;7.80;2.00;;;29.60;56.00;;;;;;5048018;28;20061;-61
2021/01/24 07:32:20;;;;;;;8.93;2.70;;;29.50;55.80;;;;;;5048185;28;20063;-60
2021/01/24 07:34:50;;;;;;;9.75;1.95;;;29.50;44.50;;;;;;5044540;28;20032;-63
2021/01/24 07:37:18;;;;;;;7.18;1.73;;;29.50;42.90;;;;;;5047311;28;20025;-62
2021/01/24 07:39:48;;;;;;;7.88;2.10;;;29.40;41.90;;;;;;5048582;28;20033;-62
2021/01/24 07:42:16;;;;;;;6.72;1.85;;;29.40;40.50;;;;;;5048291;28;20760;-62
2021/01/24 07:44:46;;;;;;;;;;;29.30;41.40;;;;;;5045604;28;20029;-62
2021/01/24 07:47:15;;;;;;;7.05;2.25;;;29.30;41.40;;;;;;5049028;28;19912;-56
2021/01/24 07:49:43;;;;;;;7.15;2.13;;;29.30;39.40;;;;;;5048735;28;20197;-56
2021/01/24 07:52:10;;;;;;;12.05;2.20;;;29.20;39.60;;;;;;5048384;28;20032;-62
2021/01/24 07:54:38;;;;;;;10.20;2.13;;;29.20;39.50;;;;;;5043001;28;20055;-57
2021/01/24 07:57:09;;;;;;;7.20;2.20;;;29.20;38.70;;;;;;5048759;28;20468;-66
2021/01/24 07:59:37;;;;;;;8.43;2.75;;;29.20;39.30;;;;;;5048342;28;20094;-62
2021/01/24 08:02:05;;;;;;;19.38;2.25;;;29.20;39.50;;;;;;5047218;28;20078;-54
2021/01/24 08:04:36;;;;;;;9.20;1.88;;;29.20;39.00;;;;;;5044416;28;20024;-53
2021/01/24 08:07:10;;;;;;;8.90;2.40;;;29.10;40.00;;;;;;5048339;28;20029;-58
2021/01/24 08:09:38;;;;;;;8.65;2.55;;;29.00;41.10;;;;;;5047682;28;20048;-61
2021/01/24 08:12:12;;;;;;;7.05;2.10;;;29.00;41.20;;;;;;5048040;28;20026;-66
2021/01/24 08:14:40;;;;;;;7.68;2.22;;;29.00;42.40;;;;;;5044629;28;20021;-65
2021/01/24 08:17:15;;;;;;;8.23;1.95;;;28.90;43.10;;;;;;5045733;28;20025;-61
2021/01/24 08:19:44;;;;;;;6.80;2.45;;;28.90;43.70;;;;;;5048049;28;20044;-66
2021/01/24 08:22:11;;;;;;;5.47;1.98;;;28.80;43.90;;;;;;5046460;28;20524;-65
2021/01/24 08:24:41;;;;;;;7.72;2.10;;;28.80;43.20;;;;;;5043476;28;20088;-64
2021/01/24 08:27:09;;;;;;;5.20;1.80;;;28.70;43.30;;;;;;5047293;28;20041;-64
2021/01/24 08:29:37;;;;;;;6.97;2.00;;;28.70;45.20;;;;;;5047218;28;20079;-55
2021/01/24 08:32:06;;;;;;;11.27;2.22;;;28.70;46.10;;;;;;5047148;28;20033;-58
2021/01/24 08:34:35;;;;;;;7.22;2.13;;;28.70;45.60;;;;;;5043959;28;20025;-58
2021/01/24 08:37:06;;;;;;;5.93;2.80;;;28.70;45.10;;;;;;5047709;28;20497;-61
2021/01/24 08:39:35;;;;;;;6.75;2.22;;;28.60;46.50;;;;;;5048080;28;20025;-62
2021/01/24 08:42:05;;;;;;;5.28;1.88;;;28.70;46.40;;;;;;5048194;28;20033;-56
2021/01/24 08:44:33;;;;;;;8.95;1.90;;;28.60;47.10;;;;;;5041397;28;20040;-62
2021/01/24 08:47:06;;;;;;;4.68;2.20;;;28.60;47.30;;;;;;5046585;28;20036;-61
2021/01/24 08:49:34;;;;;;;6.95;2.88;;;28.60;46.30;;;;;;5047765;28;20580;-62
2021/01/24 08:52:03;;;;;;;6.70;2.45;;;28.60;44.90;;;;;;5047235;28;20037;-60
2021/01/24 08:54:40;;;;;;;8.88;2.40;;;28.60;47.80;;;;;;5045179;28;20033;-63
2021/01/24 08:57:12;;;;;;;5.30;1.95;;;28.60;45.30;;;;;;5049107;28;20036;-62
2021/01/24 08:59:40;;;;;;;7.10;3.03;;;28.60;48.10;;;;;;5046869;28;20033;-62
2021/01/24 09:02:08;;;;;;;6.90;2.80;;;28.60;46.40;;;;;;5046330;28;20127;-58
2021/01/24 09:04:45;;;;;;;10.25;2.83;;;28.60;46.90;;;;;;5047015;28;20090;-61
2021/01/24 09:07:14;;;;;;;6.70;2.35;;;28.60;46.00;;;;;;5050186;28;20104;-60
2021/01/24 09:09:44;;;;;;;5.00;2.33;;;28.70;48.60;;;;;;5047460;28;20055;-59
2021/01/24 09:12:19;;;;;;;7.15;3.05;;;28.60;49.00;;;;;;5048373;28;20353;-58
2021/01/24 09:14:47;;;;;;;6.50;2.55;;;28.60;48.50;;;;;;5046571;28;20111;-56
2021/01/24 09:17:22;;;;;;;10.07;3.10;;;28.60;49.70;;;;;;5050291;28;20079;-57
2021/01/24 09:19:50;;;;;;;4.20;2.25;;;28.50;49.60;;;;;;5049804;28;20057;-61
2021/01/24 09:22:19;;;;;;;8.63;2.95;;;28.60;48.80;;;;;;5046970;28;20165;-53
2021/01/24 09:24:47;;;;;;;7.25;2.90;;;28.50;49.40;;;;;;5041297;28;20029;-53
2021/01/24 09:27:15;;;;;;;9.52;3.50;;;28.50;49.70;;;;;;5048785;28;20049;-57
2021/01/24 09:29:43;;;;;;;10.13;2.47;;;28.50;49.70;;;;;;5053415;28;20394;-52
2021/01/24 09:32:11;;;;;;;6.72;3.08;;;28.40;50.60;;;;;;5053761;28;20476;-53
2021/01/24 09:34:39;;;;;;;9.85;3.17;;;28.40;50.50;;;;;;5053816;28;20029;-54
2021/01/24 09:37:06;;;;;;;6.28;2.35;;;28.40;50.60;;;;;;5053633;28;20045;-56
2021/01/24 09:39:34;;;;;;;12.02;3.55;;;28.30;51.40;;;;;;5053709;28;20029;-55
2021/01/24 09:42:02;;;;;;;10.05;2.83;;;28.30;51.30;;;;;;5053537;28;20495;-55
2021/01/24 09:44:29;;;;;;;6.10;2.55;;;28.30;51.50;;;;;;5053804;28;20126;-55
2021/01/24 09:46:57;;;;;;;13.60;2.75;;;28.20;52.00;;;;;;5053704;28;20033;-56
2021/01/24 09:49:25;;;;;;;7.18;3.22;;;28.20;52.40;;;;;;5052170;28;20646;-54
2021/01/24 09:51:53;;;;;;;15.15;3.58;;;28.10;52.60;;;;;;5052219;28;20086;-53
2021/01/24 09:54:20;;;;;;;7.00;3.13;;;28.20;52.90;;;;;;5052675;28;20025;-53
2021/01/24 09:56:48;;;;;;;7.65;2.88;;;28.20;53.10;;;;;;5053426;28;20036;-55
2021/01/24 09:59:16;;;;;;;14.90;4.55;;;28.20;53.30;;;;;;5053053;28;20028;-52
2021/01/24 10:01:44;;;;;;;9.85;3.15;;;28.20;53.80;;;;;;5053103;28;20036;-54
2021/01/24 10:04:13;;;;;;;7.88;3.50;;;28.10;53.80;;;;;;5052854;28;20075;-55
2021/01/24 10:06:41;;;;;;;7.50;3.05;;;28.10;54.00;;;;;;5053314;28;20021;-55
2021/01/24 10:09:09;;;;;;;9.30;3.65;;;28.10;54.30;;;;;;5052561;28;20029;-53
2021/01/24 10:11:36;;;;;;;7.43;3.03;;;28.00;54.40;;;;;;5052798;28;20787;-57
2021/01/24 10:14:04;;;;;;;9.68;3.00;;;28.00;55.30;;;;;;5052486;28;20083;-51
2021/01/24 10:16:32;;;;;;;12.57;3.40;;;27.90;54.90;;;;;;5053134;28;20029;-52
2021/01/24 10:18:59;;;;;;;10.13;3.17;;;27.90;55.10;;;;;;5053188;28;20029;-52
2021/01/24 10:21:27;;;;;;;6.72;3.25;;;27.80;55.30;;;;;;5052972;28;20025;-55
2021/01/24 10:23:55;;;;;;;9.18;3.30;;;27.80;55.70;;;;;;5052055;28;20036;-52
2021/01/24 10:26:22;;;;;;;9.82;3.50;;;27.80;55.90;;;;;;5052358;28;20021;-53
2021/01/24 10:28:49;;;;;;;19.98;3.80;;;27.80;55.90;;;;;;5052321;28;20041;-54
2021/01/24 10:31:17;;;;;;;6.65;2.50;;;27.70;55.90;;;;;;5052919;28;20049;-56
2021/01/24 10:33:45;;;;;;;9.52;2.83;;;27.70;56.50;;;;;;5052105;28;20031;-52
2021/01/24 10:36:12;;;;;;;7.68;3.13;;;27.70;56.80;;;;;;5052193;28;20052;-51
2021/01/24 10:38:40;;;;;;;8.93;3.22;;;27.70;56.80;;;;;;5051985;28;20035;-61
2021/01/24 10:41:07;;;;;;;7.65;3.20;;;27.70;56.80;;;;;;5052682;28;20029;-57
2021/01/24 10:43:35;;;;;;;6.63;2.50;;;27.70;57.10;;;;;;5051559;28;20037;-59
2021/01/24 10:46:02;;;;;;;14.05;3.78;;;27.60;57.10;;;;;;5052178;28;20031;-51
2021/01/24 10:48:29;;;;;;;5.50;2.97;;;27.60;57.60;;;;;;5052217;28;20449;-55
2021/01/24 10:50:57;;;;;;;15.35;3.38;;;27.60;57.50;;;;;;5052288;28;20017;-55
2021/01/24 10:53:24;;;;;;;10.20;3.17;;;27.60;57.70;;;;;;5051499;28;20138;-54
2021/01/24 10:55:51;;;;;;;9.13;2.80;;;27.60;58.20;;;;;;5051898;28;20103;-57
2021/01/24 10:58:19;;;;;;;8.60;3.47;;;27.60;58.30;;;;;;5052078;28;20037;-63
2021/01/24 11:00:46;;;;;;;14.43;3.95;;;27.60;58.30;;;;;;5051860;28;20029;-53
2021/01/24 11:03:13;;;;;;;5.47;2.85;;;27.60;58.50;;;;;;5031955;28;20559;-54
2021/01/24 11:05:41;;;;;;;12.52;3.42;;;27.60;58.80;;;;;;5032117;28;20108;-55
2021/01/24 11:08:08;;;;;;;9.82;3.22;;;27.60;59.10;;;;;;5031479;28;20116;-58
2021/01/24 11:10:36;;;;;;;17.17;4.63;;;27.50;58.90;;;;;;5031928;28;20392;-52
2021/01/24 11:13:03;;;;;;;18.45;4.18;;;27.60;59.00;;;;;;5031959;28;20086;-56
2021/01/24 11:15:31;;;;;;;6.43;2.55;;;27.60;59.20;;;;;;5031508;28;20475;-55
2021/01/24 11:17:58;;;;;;;7.53;3.28;;;27.50;59.10;;;;;;5040748;28;20078;-57
2021/01/24 11:20:26;;;;;;;10.73;3.20;;;27.60;59.50;;;;;;5051351;28;20380;-56
2021/01/24 11:22:53;;;;;;;9.80;3.03;;;27.50;59.50;;;;;;5049673;28;20035;-56
2021/01/24 11:25:20;;;;;;;11.82;3.75;;;27.60;59.90;;;;;;5051251;28;20029;-53
2021/01/24 11:27:48;;;;;;;8.82;3.30;;;27.50;60.00;;;;;;5051508;28;20166;-55
2021/01/24 11:30:15;;;;;;;9.00;3.08;;;27.50;60.00;;;;;;5052065;28;20100;-55
2021/01/24 11:32:43;;;;;;;11.95;3.45;;;27.50;60.20;;;;;;5051368;28;20036;-56
2021/01/24 11:35:15;;;;;;;11.73;3.70;;;27.50;60.90;;;;;;5051687;28;20078;-57
2021/01/24 11:37:42;;;;;;;7.50;3.08;;;27.40;60.70;;;;;;5050915;28;20476;-57
2021/01/24 11:40:11;;;;;;;10.65;2.70;;;27.40;61.40;;;;;;5051351;28;20037;-53
2021/01/24 11:42:40;;;;;;;10.60;3.72;;;27.40;60.90;;;;;;5051541;28;20079;-52
2021/01/24 11:45:07;;;;;;;12.30;3.17;;;27.40;61.20;;;;;;5051478;28;20060;-54
2021/01/24 11:47:36;;;;;;;12.25;3.10;;;27.40;61.30;;;;;;5050163;28;20075;-58
2021/01/24 11:50:05;;;;;;;15.65;3.65;;;27.40;61.40;;;;;;5050785;28;20029;-53
2021/01/24 11:52:33;;;;;;;15.75;3.60;;;27.40;62.10;;;;;;5050918;28;20025;-57
2021/01/24 11:55:00;;;;;;;8.52;3.05;;;27.40;62.50;;;;;;5051354;28;20484;-58
2021/01/24 11:57:28;;;;;;;6.70;2.95;;;27.40;62.40;;;;;;5051458;28;20094;-55
2021/01/24 11:59:55;;;;;;;9.05;3.00;;;27.30;62.20;;;;;;5051365;28;20384;-52
2021/01/24 12:02:25;;;;;;;10.20;3.60;;;27.30;62.40;;;;;;5051227;28;20228;-53
2021/01/24 12:04:52;;;;;;;11.23;3.05;;;27.30;62.50;;;;;;5051068;28;20240;-50
2021/01/24 12:07:20;;;;;;;6.97;3.05;;;27.30;62.80;;;;;;5050541;28;20482;-53
2021/01/24 12:09:47;;;;;;;8.70;3.60;;;27.30;62.80;;;;;;5051131;28;20044;-50
2021/01/24 12:12:14;;;;;;;7.43;3.47;;;27.20;63.20;;;;;;5051076;28;20028;-55
2021/01/24 12:14:42;;;;;;;7.90;2.95;;;27.20;63.30;;;;;;5051175;28;20400;-54
2021/01/24 12:17:09;;;;;;;9.80;3.22;;;27.20;63.40;;;;;;5050945;28;20025;-54
2021/01/24 12:19:36;;;;;;;9.50;3.45;;;27.20;63.60;;;;;;5051237;28;20032;-52
2021/01/24 12:22:04;;;;;;;11.15;2.92;;;27.20;64.00;;;;;;5050097;28;20110;-54
2021/01/24 12:24:31;;;;;;;13.48;3.97;;;27.20;64.20;;;;;;5050970;28;20025;-55
2021/01/24 12:26:58;;;;;;;6.35;2.63;;;27.20;64.30;;;;;;5048402;28;20496;-57
2021/01/24 12:29:26;;;;;;;10.27;3.47;;;27.20;64.40;;;;;;5053579;28;20055;-53
2021/01/24 12:31:53;;;;;;;6.53;2.88;;;27.20;64.50;;;;;;5054328;28;20048;-54
2021/01/24 12:34:20;;;;;;;8.30;3.25;;;27.20;64.70;;;;;;5054392;28;20495;-60
2021/01/24 12:36:48;;;;;;;9.15;3.20;;;27.20;64.70;;;;;;5055204;28;20033;-58
2021/01/24 12:39:15;;;;;;;6.55;2.80;;;27.20;64.90;;;;;;5055114;28;20024;-63
2021/01/24 12:41:42;;;;;;;7.63;3.00;;;27.10;64.10;;;;;;5055145;28;20120;-58
2021/01/24 12:44:10;;;;;;;6.40;2.90;;;27.10;64.40;;;;;;5054779;28;20495;-58
2021/01/24 12:46:37;;;;;;;9.90;2.95;;;27.10;64.40;;;;;;5054881;28;20025;-59
2021/01/24 12:49:05;;;;;;;9.50;2.90;;;27.10;64.10;;;;;;5054919;28;20541;-60
2021/01/24 12:51:32;;;;;;;6.72;2.67;;;27.10;64.30;;;;;;5054881;28;20033;-61
2021/01/24 12:53:59;;;;;;;8.90;3.25;;;27.10;64.10;;;;;;5055268;28;20112;-60